sensor_id;sensor_type;location;lat;lon;timestamp;P1;durP1;ratioP1;P2;durP2;ratioP2
21615;SDS011;10970;48.714;9.584;2023-04-06T00:01:30;10.87;;;8.57;;
21615;SDS011;10970;48.714;9.584;2023-04-06T00:03:56;9.60;;;8.60;;
21615;SDS011;10970;48.714;9.584;2023-04-06T00:06:23;10.00;;;7.40;;
21615;SDS011;10970;48.714;9.584;2023-04-06T00:08:48;11.30;;;8.15;;
21615;SDS011;10970;48.714;9.584;2023-04-06T00:11:14;11.80;;;7.83;;
21615;SDS011;10970;48.714;9.584;2023-04-06T00:13:41;12.50;;;8.93;;
21615;SDS011;10970;48.714;9.584;2023-04-06T00:16:07;12.10;;;9.40;;
21615;SDS011;10970;48.714;9.584;2023-04-06T00:18:33;12.30;;;8.57;;
21615;SDS011;10970;48.714;9.584;2023-04-06T00:20:59;12.07;;;9.83;;
21615;SDS011;10970;48.714;9.584;2023-04-06T00:23:25;14.10;;;8.80;;
21615;SDS011;10970;48.714;9.584;2023-04-06T00:25:50;13.70;;;10.03;;
21615;SDS011;10970;48.714;9.584;2023-04-06T00:28:16;15.80;;;10.07;;
21615;SDS011;10970;48.714;9.584;2023-04-06T00:30:42;9.23;;;8.10;;
21615;SDS011;10970;48.714;9.584;2023-04-06T00:33:08;9.67;;;8.30;;
21615;SDS011;10970;48.714;9.584;2023-04-06T00:35:33;9.50;;;8.17;;
21615;SDS011;10970;48.714;9.584;2023-04-06T00:37:59;12.95;;;10.93;;
21615;SDS011;10970;48.714;9.584;2023-04-06T00:40:25;13.03;;;9.43;;
21615;SDS011;10970;48.714;9.584;2023-04-06T00:42:53;11.70;;;8.23;;
21615;SDS011;10970;48.714;9.584;2023-04-06T00:45:19;11.60;;;9.60;;
21615;SDS011;10970;48.714;9.584;2023-04-06T00:47:45;12.53;;;9.57;;
21615;SDS011;10970;48.714;9.584;2023-04-06T00:50:11;16.87;;;10.03;;
21615;SDS011;10970;48.714;9.584;2023-04-06T00:52:36;17.13;;;10.90;;
21615;SDS011;10970;48.714;9.584;2023-04-06T00:55:03;11.00;;;8.70;;
21615;SDS011;10970;48.714;9.584;2023-04-06T00:57:29;14.95;;;9.23;;
21615;SDS011;10970;48.714;9.584;2023-04-06T00:59:55;15.50;;;9.95;;
21615;SDS011;10970;48.714;9.584;2023-04-06T01:02:21;13.80;;;9.20;;
21615;SDS011;10970;48.714;9.584;2023-04-06T01:04:48;9.48;;;8.27;;
21615;SDS011;10970;48.714;9.584;2023-04-06T01:07:13;12.57;;;8.87;;
21615;SDS011;10970;48.714;9.584;2023-04-06T01:09:39;11.00;;;9.87;;
21615;SDS011;10970;48.714;9.584;2023-04-06T01:12:06;15.43;;;8.60;;
21615;SDS011;10970;48.714;9.584;2023-04-06T01:14:32;12.77;;;8.57;;
21615;SDS011;10970;48.714;9.584;2023-04-06T01:16:59;12.77;;;8.97;;
21615;SDS011;10970;48.714;9.584;2023-04-06T01:19:25;11.20;;;8.65;;
21615;SDS011;10970;48.714;9.584;2023-04-06T01:21:51;11.17;;;9.30;;
21615;SDS011;10970;48.714;9.584;2023-04-06T01:24:18;15.45;;;8.45;;
21615;SDS011;10970;48.714;9.584;2023-04-06T01:26:45;9.63;;;7.20;;
21615;SDS011;10970;48.714;9.584;2023-04-06T01:29:10;12.33;;;7.67;;
21615;SDS011;10970;48.714;9.584;2023-04-06T01:31:36;10.50;;;8.50;;
21615;SDS011;10970;48.714;9.584;2023-04-06T01:34:02;10.40;;;7.65;;
21615;SDS011;10970;48.714;9.584;2023-04-06T01:36:28;8.57;;;7.67;;
21615;SDS011;10970;48.714;9.584;2023-04-06T01:38:53;13.07;;;8.53;;
21615;SDS011;10970;48.714;9.584;2023-04-06T01:41:19;10.20;;;8.23;;
21615;SDS011;10970;48.714;9.584;2023-04-06T01:43:46;10.90;;;8.63;;
21615;SDS011;10970;48.714;9.584;2023-04-06T01:46:13;9.77;;;7.68;;
21615;SDS011;10970;48.714;9.584;2023-04-06T01:48:38;10.90;;;7.70;;
21615;SDS011;10970;48.714;9.584;2023-04-06T01:51:04;9.70;;;7.87;;
21615;SDS011;10970;48.714;9.584;2023-04-06T01:53:30;9.40;;;7.67;;
21615;SDS011;10970;48.714;9.584;2023-04-06T01:55:56;10.80;;;8.00;;
21615;SDS011;10970;48.714;9.584;2023-04-06T01:58:21;9.67;;;7.70;;
21615;SDS011;10970;48.714;9.584;2023-04-06T02:00:47;9.70;;;8.03;;
21615;SDS011;10970;48.714;9.584;2023-04-06T02:03:12;8.50;;;6.80;;
21615;SDS011;10970;48.714;9.584;2023-04-06T02:05:39;9.70;;;7.57;;
21615;SDS011;10970;48.714;9.584;2023-04-06T02:08:05;9.17;;;7.30;;
21615;SDS011;10970;48.714;9.584;2023-04-06T02:10:31;8.45;;;6.68;;
21615;SDS011;10970;48.714;9.584;2023-04-06T02:13:00;13.90;;;9.48;;
21615;SDS011;10970;48.714;9.584;2023-04-06T02:15:26;8.35;;;7.28;;
21615;SDS011;10970;48.714;9.584;2023-04-06T02:17:52;8.50;;;7.50;;
21615;SDS011;10970;48.714;9.584;2023-04-06T02:20:18;10.25;;;8.40;;
21615;SDS011;10970;48.714;9.584;2023-04-06T02:22:44;9.60;;;7.72;;
21615;SDS011;10970;48.714;9.584;2023-04-06T02:25:10;10.13;;;7.97;;
21615;SDS011;10970;48.714;9.584;2023-04-06T02:27:36;9.68;;;7.93;;
21615;SDS011;10970;48.714;9.584;2023-04-06T02:30:03;10.27;;;8.20;;
21615;SDS011;10970;48.714;9.584;2023-04-06T02:32:29;12.82;;;8.10;;
21615;SDS011;10970;48.714;9.584;2023-04-06T02:34:55;10.20;;;7.75;;
21615;SDS011;10970;48.714;9.584;2023-04-06T02:37:21;10.10;;;8.00;;
21615;SDS011;10970;48.714;9.584;2023-04-06T02:39:48;8.30;;;7.18;;
21615;SDS011;10970;48.714;9.584;2023-04-06T02:42:13;8.30;;;7.03;;
21615;SDS011;10970;48.714;9.584;2023-04-06T02:44:40;8.23;;;7.30;;
21615;SDS011;10970;48.714;9.584;2023-04-06T02:47:06;9.13;;;8.23;;
21615;SDS011;10970;48.714;9.584;2023-04-06T02:49:32;11.47;;;7.47;;
21615;SDS011;10970;48.714;9.584;2023-04-06T02:51:58;13.33;;;7.77;;
21615;SDS011;10970;48.714;9.584;2023-04-06T02:54:25;10.18;;;8.18;;
21615;SDS011;10970;48.714;9.584;2023-04-06T02:56:50;9.30;;;7.70;;
21615;SDS011;10970;48.714;9.584;2023-04-06T02:59:16;14.03;;;8.43;;
21615;SDS011;10970;48.714;9.584;2023-04-06T03:01:42;10.30;;;7.80;;
21615;SDS011;10970;48.714;9.584;2023-04-06T03:04:07;8.47;;;7.30;;
21615;SDS011;10970;48.714;9.584;2023-04-06T03:06:33;9.80;;;8.80;;
21615;SDS011;10970;48.714;9.584;2023-04-06T03:08:59;10.70;;;7.27;;
21615;SDS011;10970;48.714;9.584;2023-04-06T03:11:25;11.53;;;8.53;;
21615;SDS011;10970;48.714;9.584;2023-04-06T03:13:51;11.25;;;8.07;;
21615;SDS011;10970;48.714;9.584;2023-04-06T03:16:17;13.13;;;11.00;;
21615;SDS011;10970;48.714;9.584;2023-04-06T03:18:43;11.07;;;7.37;;
21615;SDS011;10970;48.714;9.584;2023-04-06T03:21:10;23.33;;;10.23;;
21615;SDS011;10970;48.714;9.584;2023-04-06T03:23:35;11.00;;;8.53;;
21615;SDS011;10970;48.714;9.584;2023-04-06T03:26:01;11.00;;;9.70;;
21615;SDS011;10970;48.714;9.584;2023-04-06T03:28:27;12.40;;;8.65;;
21615;SDS011;10970;48.714;9.584;2023-04-06T03:30:53;10.10;;;8.37;;
21615;SDS011;10970;48.714;9.584;2023-04-06T03:33:19;10.90;;;8.53;;
21615;SDS011;10970;48.714;9.584;2023-04-06T03:35:45;11.53;;;8.63;;
21615;SDS011;10970;48.714;9.584;2023-04-06T03:38:10;9.63;;;8.17;;
21615;SDS011;10970;48.714;9.584;2023-04-06T03:40:36;14.10;;;9.70;;
21615;SDS011;10970;48.714;9.584;2023-04-06T03:43:02;8.80;;;7.33;;
21615;SDS011;10970;48.714;9.584;2023-04-06T03:45:28;12.45;;;9.00;;
21615;SDS011;10970;48.714;9.584;2023-04-06T03:47:54;12.07;;;8.90;;
21615;SDS011;10970;48.714;9.584;2023-04-06T03:50:20;15.47;;;8.50;;
21615;SDS011;10970;48.714;9.584;2023-04-06T03:52:45;11.70;;;9.27;;
21615;SDS011;10970;48.714;9.584;2023-04-06T03:55:11;17.53;;;9.23;;
21615;SDS011;10970;48.714;9.584;2023-04-06T03:57:37;12.87;;;9.50;;
21615;SDS011;10970;48.714;9.584;2023-04-06T04:00:03;8.63;;;7.83;;
21615;SDS011;10970;48.714;9.584;2023-04-06T04:02:29;13.23;;;8.50;;
21615;SDS011;10970;48.714;9.584;2023-04-06T04:04:54;10.47;;;9.37;;
21615;SDS011;10970;48.714;9.584;2023-04-06T04:07:20;9.50;;;8.03;;
21615;SDS011;10970;48.714;9.584;2023-04-06T04:09:46;13.83;;;9.87;;
21615;SDS011;10970;48.714;9.584;2023-04-06T04:12:11;13.17;;;8.80;;
21615;SDS011;10970;48.714;9.584;2023-04-06T04:14:39;9.98;;;8.07;;
21615;SDS011;10970;48.714;9.584;2023-04-06T04:17:05;10.80;;;8.87;;
21615;SDS011;10970;48.714;9.584;2023-04-06T04:19:30;11.63;;;8.30;;
21615;SDS011;10970;48.714;9.584;2023-04-06T04:21:56;18.33;;;8.83;;
21615;SDS011;10970;48.714;9.584;2023-04-06T04:24:22;9.53;;;8.20;;
21615;SDS011;10970;48.714;9.584;2023-04-06T04:26:47;17.23;;;10.20;;
21615;SDS011;10970;48.714;9.584;2023-04-06T04:29:13;13.00;;;8.20;;
21615;SDS011;10970;48.714;9.584;2023-04-06T04:31:39;11.10;;;7.53;;
21615;SDS011;10970;48.714;9.584;2023-04-06T04:34:04;11.70;;;8.10;;
21615;SDS011;10970;48.714;9.584;2023-04-06T04:36:31;8.73;;;7.93;;
21615;SDS011;10970;48.714;9.584;2023-04-06T04:38:57;12.00;;;9.67;;
21615;SDS011;10970;48.714;9.584;2023-04-06T04:41:23;9.75;;;7.63;;
21615;SDS011;10970;48.714;9.584;2023-04-06T04:43:49;10.20;;;8.07;;
21615;SDS011;10970;48.714;9.584;2023-04-06T04:46:15;10.50;;;9.40;;
21615;SDS011;10970;48.714;9.584;2023-04-06T04:48:40;12.70;;;9.73;;
21615;SDS011;10970;48.714;9.584;2023-04-06T04:51:06;12.13;;;9.07;;
21615;SDS011;10970;48.714;9.584;2023-04-06T04:53:32;11.00;;;9.80;;
21615;SDS011;10970;48.714;9.584;2023-04-06T04:55:57;11.10;;;9.47;;
21615;SDS011;10970;48.714;9.584;2023-04-06T04:58:23;18.20;;;10.17;;
21615;SDS011;10970;48.714;9.584;2023-04-06T05:00:49;13.77;;;10.50;;
21615;SDS011;10970;48.714;9.584;2023-04-06T05:03:24;12.30;;;10.43;;
21615;SDS011;10970;48.714;9.584;2023-04-06T05:05:50;14.88;;;9.50;;
21615;SDS011;10970;48.714;9.584;2023-04-06T05:08:16;15.03;;;11.37;;
21615;SDS011;10970;48.714;9.584;2023-04-06T05:10:42;17.70;;;11.23;;
21615;SDS011;10970;48.714;9.584;2023-04-06T05:13:09;17.13;;;12.23;;
21615;SDS011;10970;48.714;9.584;2023-04-06T05:15:35;12.30;;;9.30;;
21615;SDS011;10970;48.714;9.584;2023-04-06T05:18:03;11.40;;;9.15;;
21615;SDS011;10970;48.714;9.584;2023-04-06T05:20:29;16.30;;;10.55;;
21615;SDS011;10970;48.714;9.584;2023-04-06T05:22:55;16.00;;;10.52;;
21615;SDS011;10970;48.714;9.584;2023-04-06T05:25:21;13.10;;;10.37;;
21615;SDS011;10970;48.714;9.584;2023-04-06T05:27:47;15.60;;;11.27;;
21615;SDS011;10970;48.714;9.584;2023-04-06T05:30:13;17.13;;;10.10;;
21615;SDS011;10970;48.714;9.584;2023-04-06T05:32:39;17.48;;;10.02;;
21615;SDS011;10970;48.714;9.584;2023-04-06T05:35:05;16.10;;;11.00;;
21615;SDS011;10970;48.714;9.584;2023-04-06T05:37:31;13.90;;;10.70;;
21615;SDS011;10970;48.714;9.584;2023-04-06T05:39:56;14.07;;;10.60;;
21615;SDS011;10970;48.714;9.584;2023-04-06T05:42:22;14.53;;;9.30;;
21615;SDS011;10970;48.714;9.584;2023-04-06T05:44:48;15.47;;;11.13;;
21615;SDS011;10970;48.714;9.584;2023-04-06T05:47:14;16.70;;;11.33;;
21615;SDS011;10970;48.714;9.584;2023-04-06T05:49:41;13.57;;;10.90;;
21615;SDS011;10970;48.714;9.584;2023-04-06T05:52:07;10.30;;;9.20;;
21615;SDS011;10970;48.714;9.584;2023-04-06T05:54:34;15.68;;;10.70;;
21615;SDS011;10970;48.714;9.584;2023-04-06T05:57:03;12.85;;;10.00;;
21615;SDS011;10970;48.714;9.584;2023-04-06T05:59:30;12.45;;;10.20;;
21615;SDS011;10970;48.714;9.584;2023-04-06T06:01:56;21.23;;;10.68;;
21615;SDS011;10970;48.714;9.584;2023-04-06T06:04:22;12.37;;;9.30;;
21615;SDS011;10970;48.714;9.584;2023-04-06T06:06:48;13.57;;;8.70;;
21615;SDS011;10970;48.714;9.584;2023-04-06T06:09:13;13.33;;;10.27;;
21615;SDS011;10970;48.714;9.584;2023-04-06T06:11:39;16.67;;;10.40;;
21615;SDS011;10970;48.714;9.584;2023-04-06T06:14:06;12.75;;;9.25;;
21615;SDS011;10970;48.714;9.584;2023-04-06T06:16:32;10.87;;;9.67;;
21615;SDS011;10970;48.714;9.584;2023-04-06T06:18:57;10.27;;;9.02;;
21615;SDS011;10970;48.714;9.584;2023-04-06T06:21:23;13.00;;;9.63;;
21615;SDS011;10970;48.714;9.584;2023-04-06T06:23:49;13.05;;;9.60;;
21615;SDS011;10970;48.714;9.584;2023-04-06T06:26:15;13.57;;;10.30;;
21615;SDS011;10970;48.714;9.584;2023-04-06T06:28:41;15.63;;;10.32;;
21615;SDS011;10970;48.714;9.584;2023-04-06T06:31:07;16.27;;;9.50;;
21615;SDS011;10970;48.714;9.584;2023-04-06T06:33:33;15.47;;;10.67;;
21615;SDS011;10970;48.714;9.584;2023-04-06T06:35:58;12.37;;;9.60;;
21615;SDS011;10970;48.714;9.584;2023-04-06T06:38:24;14.63;;;9.40;;
21615;SDS011;10970;48.714;9.584;2023-04-06T06:40:50;13.80;;;9.87;;
21615;SDS011;10970;48.714;9.584;2023-04-06T06:43:16;10.40;;;8.80;;
21615;SDS011;10970;48.714;9.584;2023-04-06T06:45:42;12.80;;;9.40;;
21615;SDS011;10970;48.714;9.584;2023-04-06T06:48:07;15.00;;;10.97;;
21615;SDS011;10970;48.714;9.584;2023-04-06T06:50:33;11.33;;;8.87;;
21615;SDS011;10970;48.714;9.584;2023-04-06T06:52:59;11.90;;;9.30;;
21615;SDS011;10970;48.714;9.584;2023-04-06T06:55:24;9.67;;;8.67;;
21615;SDS011;10970;48.714;9.584;2023-04-06T06:57:51;11.57;;;8.55;;
21615;SDS011;10970;48.714;9.584;2023-04-06T07:00:18;10.50;;;8.95;;
21615;SDS011;10970;48.714;9.584;2023-04-06T07:02:45;16.95;;;9.80;;
21615;SDS011;10970;48.714;9.584;2023-04-06T07:05:12;10.15;;;8.93;;
21615;SDS011;10970;48.714;9.584;2023-04-06T07:07:38;10.02;;;8.95;;
21615;SDS011;10970;48.714;9.584;2023-04-06T07:10:04;14.60;;;10.50;;
21615;SDS011;10970;48.714;9.584;2023-04-06T07:12:30;12.65;;;10.23;;
21615;SDS011;10970;48.714;9.584;2023-04-06T07:14:56;13.73;;;10.30;;
21615;SDS011;10970;48.714;9.584;2023-04-06T07:17:21;9.43;;;8.53;;
21615;SDS011;10970;48.714;9.584;2023-04-06T07:19:47;11.47;;;9.50;;
21615;SDS011;10970;48.714;9.584;2023-04-06T07:22:13;12.57;;;9.27;;
21615;SDS011;10970;48.714;9.584;2023-04-06T07:24:39;11.70;;;8.90;;
21615;SDS011;10970;48.714;9.584;2023-04-06T07:27:04;12.50;;;9.43;;
21615;SDS011;10970;48.714;9.584;2023-04-06T07:29:30;12.63;;;9.30;;
21615;SDS011;10970;48.714;9.584;2023-04-06T07:31:56;11.90;;;9.10;;
21615;SDS011;10970;48.714;9.584;2023-04-06T07:34:22;11.33;;;9.80;;
21615;SDS011;10970;48.714;9.584;2023-04-06T07:36:48;14.33;;;10.03;;
21615;SDS011;10970;48.714;9.584;2023-04-06T07:39:13;10.50;;;8.83;;
21615;SDS011;10970;48.714;9.584;2023-04-06T07:41:39;13.83;;;11.03;;
21615;SDS011;10970;48.714;9.584;2023-04-06T07:44:05;11.05;;;9.82;;
21615;SDS011;10970;48.714;9.584;2023-04-06T07:46:31;11.60;;;9.20;;
21615;SDS011;10970;48.714;9.584;2023-04-06T07:48:57;17.33;;;9.07;;
21615;SDS011;10970;48.714;9.584;2023-04-06T07:51:25;13.20;;;10.07;;
21615;SDS011;10970;48.714;9.584;2023-04-06T07:53:51;12.50;;;10.88;;
21615;SDS011;10970;48.714;9.584;2023-04-06T07:56:17;17.60;;;9.90;;
21615;SDS011;10970;48.714;9.584;2023-04-06T07:58:43;11.00;;;10.00;;
21615;SDS011;10970;48.714;9.584;2023-04-06T08:01:09;10.37;;;9.30;;
21615;SDS011;10970;48.714;9.584;2023-04-06T08:03:35;10.82;;;9.68;;
21615;SDS011;10970;48.714;9.584;2023-04-06T08:06:01;11.95;;;10.40;;
21615;SDS011;10970;48.714;9.584;2023-04-06T08:08:27;13.23;;;10.63;;
21615;SDS011;10970;48.714;9.584;2023-04-06T08:10:53;10.60;;;9.50;;
21615;SDS011;10970;48.714;9.584;2023-04-06T08:13:19;9.50;;;8.60;;
21615;SDS011;10970;48.714;9.584;2023-04-06T08:15:45;10.37;;;9.30;;
21615;SDS011;10970;48.714;9.584;2023-04-06T08:18:11;10.10;;;9.10;;
21615;SDS011;10970;48.714;9.584;2023-04-06T08:20:37;9.70;;;8.80;;
21615;SDS011;10970;48.714;9.584;2023-04-06T08:23:04;12.13;;;8.97;;
21615;SDS011;10970;48.714;9.584;2023-04-06T08:25:30;11.80;;;9.27;;
21615;SDS011;10970;48.714;9.584;2023-04-06T08:27:55;14.60;;;9.53;;
21615;SDS011;10970;48.714;9.584;2023-04-06T08:30:21;11.83;;;9.43;;
21615;SDS011;10970;48.714;9.584;2023-04-06T08:32:47;10.87;;;9.30;;
21615;SDS011;10970;48.714;9.584;2023-04-06T08:35:12;9.10;;;8.10;;
21615;SDS011;10970;48.714;9.584;2023-04-06T08:37:38;11.57;;;9.80;;
21615;SDS011;10970;48.714;9.584;2023-04-06T08:40:04;11.37;;;9.87;;
21615;SDS011;10970;48.714;9.584;2023-04-06T08:42:33;10.80;;;9.40;;
21615;SDS011;10970;48.714;9.584;2023-04-06T08:45:10;13.50;;;9.50;;
21615;SDS011;10970;48.714;9.584;2023-04-06T08:47:36;10.80;;;9.70;;
21615;SDS011;10970;48.714;9.584;2023-04-06T08:50:05;11.60;;;9.37;;
21615;SDS011;10970;48.714;9.584;2023-04-06T08:52:32;9.43;;;8.50;;
21615;SDS011;10970;48.714;9.584;2023-04-06T08:54:59;11.33;;;10.17;;
21615;SDS011;10970;48.714;9.584;2023-04-06T08:57:25;18.50;;;9.90;;
21615;SDS011;10970;48.714;9.584;2023-04-06T08:59:52;10.53;;;9.43;;
21615;SDS011;10970;48.714;9.584;2023-04-06T09:02:19;11.63;;;9.33;;
21615;SDS011;10970;48.714;9.584;2023-04-06T09:04:47;10.43;;;9.27;;
21615;SDS011;10970;48.714;9.584;2023-04-06T09:07:15;15.90;;;10.80;;
21615;SDS011;10970;48.714;9.584;2023-04-06T09:09:41;15.07;;;10.20;;
21615;SDS011;10970;48.714;9.584;2023-04-06T09:12:22;12.43;;;9.17;;
21615;SDS011;10970;48.714;9.584;2023-04-06T09:14:52;13.47;;;11.20;;
21615;SDS011;10970;48.714;9.584;2023-04-06T09:17:31;14.93;;;9.50;;
21615;SDS011;10970;48.714;9.584;2023-04-06T09:19:59;12.73;;;10.10;;
21615;SDS011;10970;48.714;9.584;2023-04-06T09:22:25;11.83;;;10.53;;
21615;SDS011;10970;48.714;9.584;2023-04-06T09:25:18;12.03;;;9.83;;
21615;SDS011;10970;48.714;9.584;2023-04-06T09:27:45;10.33;;;8.30;;
21615;SDS011;10970;48.714;9.584;2023-04-06T09:30:12;13.43;;;9.80;;
21615;SDS011;10970;48.714;9.584;2023-04-06T09:32:45;11.63;;;8.97;;
21615;SDS011;10970;48.714;9.584;2023-04-06T09:35:15;11.37;;;9.10;;
21615;SDS011;10970;48.714;9.584;2023-04-06T09:37:44;13.43;;;9.50;;
21615;SDS011;10970;48.714;9.584;2023-04-06T09:40:10;11.33;;;9.70;;
21615;SDS011;10970;48.714;9.584;2023-04-06T09:42:37;14.37;;;8.93;;
21615;SDS011;10970;48.714;9.584;2023-04-06T09:45:03;13.93;;;9.83;;
21615;SDS011;10970;48.714;9.584;2023-04-06T09:47:30;9.43;;;8.43;;
21615;SDS011;10970;48.714;9.584;2023-04-06T09:49:59;12.27;;;8.90;;
21615;SDS011;10970;48.714;9.584;2023-04-06T09:52:32;11.20;;;8.73;;
21615;SDS011;10970;48.714;9.584;2023-04-06T09:55:03;8.87;;;7.30;;
21615;SDS011;10970;48.714;9.584;2023-04-06T09:57:35;11.33;;;7.90;;
21615;SDS011;10970;48.714;9.584;2023-04-06T10:00:17;8.50;;;5.97;;
21615;SDS011;10970;48.714;9.584;2023-04-06T10:05:46;6.87;;;5.40;;
21615;SDS011;10970;48.714;9.584;2023-04-06T10:08:15;6.90;;;5.90;;
21615;SDS011;10970;48.714;9.584;2023-04-06T10:10:42;6.90;;;6.20;;
21615;SDS011;10970;48.714;9.584;2023-04-06T10:13:09;7.00;;;5.50;;
21615;SDS011;10970;48.714;9.584;2023-04-06T10:15:36;6.40;;;5.80;;
21615;SDS011;10970;48.714;9.584;2023-04-06T10:18:05;8.03;;;6.50;;
21615;SDS011;10970;48.714;9.584;2023-04-06T10:20:39;6.57;;;5.87;;
21615;SDS011;10970;48.714;9.584;2023-04-06T10:23:29;7.20;;;5.90;;
21615;SDS011;10970;48.714;9.584;2023-04-06T10:26:00;10.77;;;7.07;;
21615;SDS011;10970;48.714;9.584;2023-04-06T10:28:31;6.60;;;6.00;;
21615;SDS011;10970;48.714;9.584;2023-04-06T10:30:59;7.97;;;6.63;;
21615;SDS011;10970;48.714;9.584;2023-04-06T10:33:26;9.30;;;7.00;;
21615;SDS011;10970;48.714;9.584;2023-04-06T10:35:52;7.40;;;6.50;;
21615;SDS011;10970;48.714;9.584;2023-04-06T10:38:20;8.30;;;5.70;;
21615;SDS011;10970;48.714;9.584;2023-04-06T10:41:03;6.70;;;6.00;;
21615;SDS011;10970;48.714;9.584;2023-04-06T10:43:32;7.77;;;7.07;;
21615;SDS011;10970;48.714;9.584;2023-04-06T10:46:02;7.13;;;6.23;;
21615;SDS011;10970;48.714;9.584;2023-04-06T10:48:40;10.00;;;8.20;;
21615;SDS011;10970;48.714;9.584;2023-04-06T10:51:15;7.40;;;6.70;;
21615;SDS011;10970;48.714;9.584;2023-04-06T10:53:43;7.80;;;7.00;;
21615;SDS011;10970;48.714;9.584;2023-04-06T10:56:14;8.53;;;7.67;;
21615;SDS011;10970;48.714;9.584;2023-04-06T10:58:44;8.23;;;7.43;;
21615;SDS011;10970;48.714;9.584;2023-04-06T11:01:14;8.63;;;6.80;;
21615;SDS011;10970;48.714;9.584;2023-04-06T11:03:47;10.63;;;7.93;;
21615;SDS011;10970;48.714;9.584;2023-04-06T11:06:21;8.23;;;7.43;;
21615;SDS011;10970;48.714;9.584;2023-04-06T11:08:48;10.83;;;7.40;;
21615;SDS011;10970;48.714;9.584;2023-04-06T11:11:15;8.77;;;7.70;;
21615;SDS011;10970;48.714;9.584;2023-04-06T11:16:18;11.33;;;6.77;;
21615;SDS011;10970;48.714;9.584;2023-04-06T11:27:16;11.57;;;8.10;;
21615;SDS011;10970;48.714;9.584;2023-04-06T11:29:27;8.70;;;7.30;;
21615;SDS011;10970;48.714;9.584;2023-04-06T11:31:58;9.70;;;7.40;;
21615;SDS011;10970;48.714;9.584;2023-04-06T11:34:25;8.90;;;7.70;;
21615;SDS011;10970;48.714;9.584;2023-04-06T11:37:00;8.33;;;7.10;;
21615;SDS011;10970;48.714;9.584;2023-04-06T11:39:27;9.17;;;7.77;;
21615;SDS011;10970;48.714;9.584;2023-04-06T11:41:56;8.67;;;7.30;;
21615;SDS011;10970;48.714;9.584;2023-04-06T11:44:38;9.40;;;8.40;;
21615;SDS011;10970;48.714;9.584;2023-04-06T11:47:06;7.73;;;6.93;;
21615;SDS011;10970;48.714;9.584;2023-04-06T11:49:33;9.23;;;7.47;;
21615;SDS011;10970;48.714;9.584;2023-04-06T11:52:01;7.17;;;6.40;;
21615;SDS011;10970;48.714;9.584;2023-04-06T11:56:56;6.73;;;5.73;;
21615;SDS011;10970;48.714;9.584;2023-04-06T11:59:22;7.23;;;6.10;;
21615;SDS011;10970;48.714;9.584;2023-04-06T12:01:48;9.50;;;7.03;;
21615;SDS011;10970;48.714;9.584;2023-04-06T12:04:14;9.53;;;7.13;;
21615;SDS011;10970;48.714;9.584;2023-04-06T12:06:40;7.70;;;6.90;;
21615;SDS011;10970;48.714;9.584;2023-04-06T12:09:05;7.90;;;6.70;;
21615;SDS011;10970;48.714;9.584;2023-04-06T12:11:31;7.93;;;6.90;;
21615;SDS011;10970;48.714;9.584;2023-04-06T12:13:57;7.53;;;6.83;;
21615;SDS011;10970;48.714;9.584;2023-04-06T12:16:24;10.27;;;6.60;;
21615;SDS011;10970;48.714;9.584;2023-04-06T12:18:50;8.43;;;6.37;;
21615;SDS011;10970;48.714;9.584;2023-04-06T12:21:16;8.80;;;6.10;;
21615;SDS011;10970;48.714;9.584;2023-04-06T12:23:42;7.73;;;6.57;;
21615;SDS011;10970;48.714;9.584;2023-04-06T12:26:07;8.50;;;6.47;;
21615;SDS011;10970;48.714;9.584;2023-04-06T12:28:33;5.63;;;5.13;;
21615;SDS011;10970;48.714;9.584;2023-04-06T12:30:59;6.87;;;6.17;;
21615;SDS011;10970;48.714;9.584;2023-04-06T12:33:25;8.40;;;6.80;;
21615;SDS011;10970;48.714;9.584;2023-04-06T12:35:51;6.30;;;5.70;;
21615;SDS011;10970;48.714;9.584;2023-04-06T12:38:16;8.30;;;6.80;;
21615;SDS011;10970;48.714;9.584;2023-04-06T12:40:42;11.60;;;7.07;;
21615;SDS011;10970;48.714;9.584;2023-04-06T12:43:08;7.60;;;6.50;;
21615;SDS011;10970;48.714;9.584;2023-04-06T12:45:34;6.30;;;5.70;;
21615;SDS011;10970;48.714;9.584;2023-04-06T12:48:00;8.33;;;6.43;;
21615;SDS011;10970;48.714;9.584;2023-04-06T12:50:26;9.43;;;7.40;;
21615;SDS011;10970;48.714;9.584;2023-04-06T12:52:51;8.97;;;7.10;;
21615;SDS011;10970;48.714;9.584;2023-04-06T12:55:17;8.83;;;6.93;;
21615;SDS011;10970;48.714;9.584;2023-04-06T12:57:44;7.83;;;6.37;;
21615;SDS011;10970;48.714;9.584;2023-04-06T13:00:10;9.53;;;7.47;;
21615;SDS011;10970;48.714;9.584;2023-04-06T13:02:36;7.87;;;6.37;;
21615;SDS011;10970;48.714;9.584;2023-04-06T13:05:02;7.80;;;6.47;;
21615;SDS011;10970;48.714;9.584;2023-04-06T13:07:28;7.20;;;6.47;;
21615;SDS011;10970;48.714;9.584;2023-04-06T13:09:53;8.60;;;7.20;;
21615;SDS011;10970;48.714;9.584;2023-04-06T13:12:19;8.50;;;5.70;;
21615;SDS011;10970;48.714;9.584;2023-04-06T13:14:45;7.00;;;6.40;;
21615;SDS011;10970;48.714;9.584;2023-04-06T13:17:15;8.50;;;6.17;;
21615;SDS011;10970;48.714;9.584;2023-04-06T13:19:42;7.87;;;6.60;;
21615;SDS011;10970;48.714;9.584;2023-04-06T13:22:08;7.30;;;5.43;;
21615;SDS011;10970;48.714;9.584;2023-04-06T13:24:34;9.80;;;7.63;;
21615;SDS011;10970;48.714;9.584;2023-04-06T13:27:00;6.63;;;5.93;;
21615;SDS011;10970;48.714;9.584;2023-04-06T13:29:26;9.57;;;6.13;;
21615;SDS011;10970;48.714;9.584;2023-04-06T13:31:52;8.77;;;7.20;;
21615;SDS011;10970;48.714;9.584;2023-04-06T13:34:18;8.97;;;7.00;;
21615;SDS011;10970;48.714;9.584;2023-04-06T13:36:43;12.77;;;7.63;;
21615;SDS011;10970;48.714;9.584;2023-04-06T13:39:09;8.60;;;6.63;;
21615;SDS011;10970;48.714;9.584;2023-04-06T13:41:35;8.73;;;6.37;;
21615;SDS011;10970;48.714;9.584;2023-04-06T13:44:00;9.27;;;5.57;;
21615;SDS011;10970;48.714;9.584;2023-04-06T13:46:26;5.87;;;4.50;;
21615;SDS011;10970;48.714;9.584;2023-04-06T13:48:52;6.17;;;5.30;;
21615;SDS011;10970;48.714;9.584;2023-04-06T13:51:18;7.50;;;4.90;;
21615;SDS011;10970;48.714;9.584;2023-04-06T13:53:44;6.13;;;5.10;;
21615;SDS011;10970;48.714;9.584;2023-04-06T13:56:10;7.10;;;5.23;;
21615;SDS011;10970;48.714;9.584;2023-04-06T13:58:36;6.30;;;4.97;;
21615;SDS011;10970;48.714;9.584;2023-04-06T14:01:02;6.60;;;4.70;;
21615;SDS011;10970;48.714;9.584;2023-04-06T14:03:29;8.63;;;5.40;;
21615;SDS011;10970;48.714;9.584;2023-04-06T14:05:55;5.27;;;4.73;;
21615;SDS011;10970;48.714;9.584;2023-04-06T14:08:21;8.60;;;5.30;;
21615;SDS011;10970;48.714;9.584;2023-04-06T14:10:46;6.00;;;4.83;;
21615;SDS011;10970;48.714;9.584;2023-04-06T14:13:12;5.43;;;4.50;;
21615;SDS011;10970;48.714;9.584;2023-04-06T14:15:38;4.87;;;4.47;;
21615;SDS011;10970;48.714;9.584;2023-04-06T14:18:04;4.03;;;3.63;;
21615;SDS011;10970;48.714;9.584;2023-04-06T14:20:32;6.43;;;5.70;;
21615;SDS011;10970;48.714;9.584;2023-04-06T14:22:59;6.97;;;4.40;;
21615;SDS011;10970;48.714;9.584;2023-04-06T14:25:28;7.63;;;4.20;;
21615;SDS011;10970;48.714;9.584;2023-04-06T14:27:56;4.57;;;4.17;;
21615;SDS011;10970;48.714;9.584;2023-04-06T14:30:22;5.27;;;3.80;;
21615;SDS011;10970;48.714;9.584;2023-04-06T14:32:48;5.60;;;3.43;;
21615;SDS011;10970;48.714;9.584;2023-04-06T14:35:13;4.20;;;3.80;;
21615;SDS011;10970;48.714;9.584;2023-04-06T14:37:39;7.23;;;4.80;;
21615;SDS011;10970;48.714;9.584;2023-04-06T14:40:05;9.00;;;4.80;;
21615;SDS011;10970;48.714;9.584;2023-04-06T14:42:31;4.83;;;4.33;;
21615;SDS011;10970;48.714;9.584;2023-04-06T14:44:57;4.77;;;4.30;;
21615;SDS011;10970;48.714;9.584;2023-04-06T14:47:23;9.03;;;4.50;;
21615;SDS011;10970;48.714;9.584;2023-04-06T14:49:50;14.23;;;6.33;;
21615;SDS011;10970;48.714;9.584;2023-04-06T14:52:16;5.10;;;4.60;;